Time;durP1;ratioP1;P1;durP2;ratioP2;P2;SDS_P1;SDS_P2;PMS_P1;PMS_P2;Temp;Humidity;BMP_temperature;BMP_pressure;BME280_temperature;BME280_humidity;BME280_pressure;Samples;Min_cycle;Max_cycle;Signal;HPM_P1;HPM_P2
2023/06/02 00:02:29;;;;;;;13.40;3.67;;;;;;;;;;5059161;28;20467;-80
2023/06/02 00:04:57;;;;;;;24.03;4.50;;;;;;;;;;5055978;28;20841;-78
2023/06/02 00:07:25;;;;;;;13.07;4.97;;;;;;;;;;5064329;28;21008;-78
2023/06/02 00:09:52;;;;;;;11.83;4.43;;;;;;;;;;5061966;28;20444;-80
2023/06/02 00:12:18;;;;;;;17.27;4.57;;;;;;;;;;5063715;28;21007;-80
2023/06/02 00:14:47;;;;;;;13.23;4.57;;;;;;;;;;5063272;28;20485;-80
2023/06/02 00:17:18;;;;;;;9.60;3.93;;;;;;;;;;5063162;28;20530;-80
2023/06/02 00:19:45;;;;;;;11.13;4.67;;;;;;;;;;5062193;28;20452;-80
2023/06/02 00:22:13;;;;;;;9.50;4.63;;;;;;;;;;5058925;28;20471;-80
2023/06/02 00:24:40;;;;;;;90.80;81.93;;;;;;;;;;5059583;28;20985;-80
2023/06/02 00:27:07;;;;;;;8.03;5.03;;;;;;;;;;5049494;28;20555;-80
2023/06/02 00:29:33;;;;;;;110.70;82.77;;;;;;;;;;5059452;28;20464;-79
2023/06/02 00:32:01;;;;;;;13.40;4.00;;;;;;;;;;5035475;28;20476;-78
2023/06/02 00:34:28;;;;;;;17.17;4.80;;;;;;;;;;5054682;28;20578;-80
2023/06/02 00:36:54;;;;;;;9.63;4.37;;;;;;;;;;5055982;28;20475;-80
2023/06/02 00:39:20;;;;;;;14.20;5.00;;;;;;;;;;5058345;28;20451;-79
2023/06/02 00:41:47;;;;;;;19.33;4.40;;;;;;;;;;5034845;28;20484;-79
2023/06/02 00:44:14;;;;;;;19.70;4.53;;;;;;;;;;5057181;28;20474;-79
2023/06/02 00:46:41;;;;;;;12.10;5.40;;;;;;;;;;5032468;28;20829;-79
2023/06/02 00:49:08;;;;;;;10.03;5.10;;;;;;;;;;5061287;28;20498;-80
2023/06/02 00:51:35;;;;;;;11.90;4.63;;;;;;;;;;5052178;28;20495;-79
2023/06/02 00:54:02;;;;;;;15.87;4.80;;;;;;;;;;5057275;28;20514;-78
2023/06/02 00:56:29;;;;;;;15.57;5.70;;;;;;;;;;5040956;28;20504;-78
2023/06/02 00:58:55;;;;;;;17.63;5.40;;;;;;;;;;5068788;28;20463;-78
2023/06/02 01:01:22;;;;;;;13.37;4.80;;;;;;;;;;5057451;28;20559;-79
2023/06/02 01:03:49;;;;;;;13.33;6.10;;;;;;;;;;5056337;28;20507;-80
2023/06/02 01:06:20;;;;;;;7.87;5.47;;;;;;;;;;5058949;28;20470;-80
2023/06/02 01:08:47;;;;;;;13.37;4.67;;;;;;;;;;5058200;28;20478;-80
2023/06/02 01:11:13;;;;;;;14.53;5.00;;;;;;;;;;5055359;28;21042;-80
2023/06/02 01:13:40;;;;;;;14.17;4.97;;;;;;;;;;5058220;28;20566;-80
2023/06/02 01:16:06;;;;;;;18.73;6.17;;;;;;;;;;5058911;28;20462;-80
2023/06/02 01:18:36;;;;;;;14.97;5.87;;;;;;;;;;5060377;28;20467;-81
2023/06/02 01:21:05;;;;;;;20.87;6.87;;;;;;;;;;5053612;28;20532;-80
2023/06/02 01:23:33;;;;;;;17.13;6.47;;;;;;;;;;5058893;28;20450;-78
2023/06/02 01:26:01;;;;;;;14.63;6.10;;;;;;;;;;5057941;28;20479;-79
2023/06/02 01:28:28;;;;;;;19.47;7.73;;;;;;;;;;5062217;28;20471;-79
2023/06/02 01:30:57;;;;;;;17.53;5.70;;;;;;;;;;5059558;28;20467;-79
2023/06/02 01:33:26;;;;;;;20.83;6.13;;;;;;;;;;5048365;28;20456;-79
2023/06/02 01:35:57;;;;;;;22.53;8.13;;;;;;;;;;5050154;28;20472;-79
2023/06/02 01:38:26;;;;;;;22.00;7.23;;;;;;;;;;5062872;28;20471;-79
2023/06/02 01:40:54;;;;;;;18.40;6.10;;;;;;;;;;5058706;28;20516;-79
2023/06/02 01:43:22;;;;;;;19.30;6.30;;;;;;;;;;5055168;28;20521;-80
2023/06/02 01:45:48;;;;;;;133.43;80.23;;;;;;;;;;5059887;28;20840;-79
2023/06/02 01:48:15;;;;;;;24.30;7.10;;;;;;;;;;5063430;28;20468;-79
2023/06/02 01:50:41;;;;;;;168.23;22.17;;;;;;;;;;5065866;28;20895;-80
2023/06/02 01:53:07;;;;;;;16.03;6.07;;;;;;;;;;5058376;28;20938;-80
2023/06/02 01:55:35;;;;;;;271.53;30.77;;;;;;;;;;5059715;28;20462;-80
2023/06/02 01:58:02;;;;;;;22.63;5.33;;;;;;;;;;5066074;28;20517;-80
2023/06/02 02:00:30;;;;;;;14.80;5.50;;;;;;;;;;5057553;28;20445;-80
2023/06/02 02:02:57;;;;;;;16.57;4.90;;;;;;;;;;5037315;28;20447;-80
2023/06/02 02:05:24;;;;;;;22.60;6.40;;;;;;;;;;5030551;28;20432;-80
2023/06/02 02:07:50;;;;;;;14.67;5.87;;;;;;;;;;5059507;28;20494;-80
2023/06/02 02:10:17;;;;;;;95.60;30.30;;;;;;;;;;5052186;28;20957;-80
2023/06/02 02:12:43;;;;;;;49.90;7.30;;;;;;;;;;5058301;28;20460;-80
2023/06/02 02:15:10;;;;;;;17.80;8.03;;;;;;;;;;5054900;28;20491;-80
2023/06/02 02:17:45;;;;;;;144.47;23.87;;;;;;;;;;5052544;28;20482;-80
2023/06/02 02:20:12;;;;;;;19.27;5.50;;;;;;;;;;5032853;28;20443;-81
2023/06/02 02:22:38;;;;;;;27.47;7.83;;;;;;;;;;5079779;28;20459;-80
2023/06/02 02:25:07;;;;;;;25.10;7.07;;;;;;;;;;5080742;28;20467;-79
2023/06/02 02:27:33;;;;;;;23.73;6.80;;;;;;;;;;5079422;28;20562;-78
2023/06/02 02:30:00;;;;;;;20.80;6.13;;;;;;;;;;5081045;28;20824;-80
2023/06/02 02:32:26;;;;;;;13.97;5.33;;;;;;;;;;5057973;28;20468;-78
2023/06/02 02:34:54;;;;;;;20.37;6.03;;;;;;;;;;5055921;28;20486;-80
2023/06/02 02:37:20;;;;;;;14.30;6.30;;;;;;;;;;5056296;28;20495;-80
2023/06/02 02:39:47;;;;;;;22.17;5.50;;;;;;;;;;5056482;28;20459;-80
2023/06/02 02:42:13;;;;;;;22.40;6.33;;;;;;;;;;5055379;28;20475;-80
2023/06/02 02:44:39;;;;;;;17.53;5.30;;;;;;;;;;5057250;28;20467;-78
2023/06/02 02:47:06;;;;;;;13.10;4.27;;;;;;;;;;5069274;28;20482;-78
2023/06/02 02:49:33;;;;;;;37.00;8.00;;;;;;;;;;5076560;28;20463;-80
2023/06/02 02:52:02;;;;;;;14.70;5.90;;;;;;;;;;5065063;28;20479;-79
2023/06/02 02:54:28;;;;;;;24.63;6.90;;;;;;;;;;5057747;28;20486;-80
2023/06/02 02:56:54;;;;;;;15.67;5.83;;;;;;;;;;5052384;28;20472;-78
2023/06/02 02:59:21;;;;;;;21.97;7.10;;;;;;;;;;5056615;28;20463;-79
2023/06/02 03:01:47;;;;;;;22.60;7.30;;;;;;;;;;5066337;28;20481;-78
2023/06/02 03:04:18;;;;;;;16.23;6.20;;;;;;;;;;5077573;28;20443;-78
2023/06/02 03:06:48;;;;;;;19.53;6.53;;;;;;;;;;5075252;28;20471;-78
2023/06/02 03:09:17;;;;;;;17.70;6.17;;;;;;;;;;5079482;28;20824;-80
2023/06/02 03:11:44;;;;;;;17.17;6.10;;;;;;;;;;5074694;28;20473;-80
2023/06/02 03:14:10;;;;;;;26.50;7.20;;;;;;;;;;5081302;28;20838;-80
2023/06/02 03:16:40;;;;;;;18.97;6.37;;;;;;;;;;5072769;28;20475;-80
2023/06/02 03:19:07;;;;;;;14.33;6.40;;;;;;;;;;5077354;28;20458;-80
2023/06/02 03:21:41;;;;;;;21.37;6.90;;;;;;;;;;5078694;28;20467;-80
2023/06/02 03:24:09;;;;;;;26.13;5.93;;;;;;;;;;5070289;28;20439;-80
2023/06/02 03:26:40;;;;;;;16.67;6.60;;;;;;;;;;5078911;28;20470;-81
2023/06/02 03:29:06;;;;;;;24.20;6.83;;;;;;;;;;5077225;28;20948;-78
2023/06/02 03:31:33;;;;;;;19.70;7.70;;;;;;;;;;5072950;28;20844;-78
2023/06/02 03:33:59;;;;;;;21.33;6.10;;;;;;;;;;5077161;28;20455;-79
2023/06/02 03:36:25;;;;;;;20.23;8.07;;;;;;;;;;5075521;28;20470;-78
2023/06/02 03:38:54;;;;;;;18.80;6.40;;;;;;;;;;5076286;28;20474;-78
2023/06/02 03:41:20;;;;;;;24.87;7.63;;;;;;;;;;5078356;28;20879;-78
2023/06/02 03:43:48;;;;;;;22.73;6.63;;;;;;;;;;5078827;28;20454;-78
2023/06/02 03:46:14;;;;;;;24.50;6.40;;;;;;;;;;5077595;28;20571;-78
2023/06/02 03:48:41;;;;;;;24.97;7.17;;;;;;;;;;5078421;28;21011;-79
2023/06/02 03:51:07;;;;;;;14.80;7.13;;;;;;;;;;5080562;28;20983;-78
2023/06/02 03:53:33;;;;;;;17.97;6.83;;;;;;;;;;5083103;28;20462;-78
2023/06/02 03:56:00;;;;;;;41.33;8.23;;;;;;;;;;5073138;28;20475;-78
2023/06/02 03:58:26;;;;;;;23.63;8.40;;;;;;;;;;5076159;28;20463;-80
2023/06/02 04:00:55;;;;;;;25.77;6.90;;;;;;;;;;5072415;28;20489;-80
2023/06/02 04:03:22;;;;;;;28.77;7.20;;;;;;;;;;5081368;28;20527;-80
2023/06/02 04:05:50;;;;;;;16.87;7.10;;;;;;;;;;5076321;28;21034;-78
2023/06/02 04:08:16;;;;;;;27.77;9.03;;;;;;;;;;5076574;28;20463;-80
2023/06/02 04:10:43;;;;;;;22.73;6.80;;;;;;;;;;5081142;28;20459;-80
2023/06/02 04:13:09;;;;;;;20.53;7.40;;;;;;;;;;5074301;28;20955;-80
2023/06/02 04:15:36;;;;;;;13.90;7.00;;;;;;;;;;5078961;28;20463;-80
2023/06/02 04:18:04;;;;;;;27.40;8.23;;;;;;;;;;5075762;28;20482;-80
2023/06/02 04:20:30;;;;;;;34.37;7.73;;;;;;;;;;5076746;28;20644;-80
2023/06/02 04:22:56;;;;;;;18.73;7.10;;;;;;;;;;5081808;28;20443;-81
2023/06/02 04:25:28;;;;;;;21.60;8.73;;;;;;;;;;5067115;28;20439;-80
2023/06/02 04:27:54;;;;;;;23.77;8.03;;;;;;;;;;5077350;28;20995;-80
2023/06/02 04:30:21;;;;;;;21.93;7.07;;;;;;;;;;5080534;28;20465;-80
2023/06/02 04:32:49;;;;;;;15.27;7.60;;;;;;;;;;5073758;28;20459;-80
2023/06/02 04:35:17;;;;;;;21.07;6.80;;;;;;;;;;5079560;28;20473;-80
2023/06/02 04:37:46;;;;;;;22.37;7.40;;;;;;;;;;5074303;28;20463;-79
2023/06/02 04:40:13;;;;;;;20.93;6.20;;;;;;;;;;5069566;28;20541;-80
2023/06/02 04:42:40;;;;;;;18.77;4.97;;;;;;;;;;5074500;28;20955;-79
2023/06/02 04:45:10;;;;;;;17.40;6.93;;;;;;;;;;5078659;28;20442;-80
2023/06/02 04:47:37;;;;;;;20.80;6.60;;;;;;;;;;5077778;28;20548;-80
2023/06/02 04:50:03;;;;;;;21.83;5.80;;;;;;;;;;5073419;28;20443;-79
2023/06/02 04:52:31;;;;;;;27.70;6.60;;;;;;;;;;5076031;28;20470;-80
2023/06/02 04:54:57;;;;;;;14.27;5.30;;;;;;;;;;5080634;28;20474;-79
2023/06/02 04:57:24;;;;;;;14.73;5.53;;;;;;;;;;5075957;28;20479;-79
2023/06/02 04:59:50;;;;;;;27.97;6.43;;;;;;;;;;5077983;28;20443;-79
2023/06/02 05:02:17;;;;;;;21.23;5.60;;;;;;;;;;5074153;28;21029;-80
2023/06/02 05:04:43;;;;;;;22.00;5.73;;;;;;;;;;5074522;28;20454;-80
2023/06/02 05:07:10;;;;;;;23.30;5.63;;;;;;;;;;5077864;28;20879;-80
2023/06/02 05:09:37;;;;;;;14.90;5.27;;;;;;;;;;5080238;28;20941;-79
2023/06/02 05:12:05;;;;;;;12.33;5.90;;;;;;;;;;5077023;28;20539;-79
2023/06/02 05:14:32;;;;;;;24.50;7.70;;;;;;;;;;5078180;28;20447;-79
2023/06/02 05:16:58;;;;;;;18.40;6.40;;;;;;;;;;5083104;28;20483;-79
2023/06/02 05:19:24;;;;;;;15.83;5.60;;;;;;;;;;5081866;28;20948;-79
2023/06/02 05:21:51;;;;;;;31.43;6.50;;;;;;;;;;5078886;28;20466;-80
2023/06/02 05:24:17;;;;;;;16.90;5.20;;;;;;;;;;5077645;28;20447;-80
2023/06/02 05:26:45;;;;;;;29.13;6.70;;;;;;;;;;5076670;28;20471;-79
2023/06/02 05:29:12;;;;;;;34.50;7.10;;;;;;;;;;5077693;28;20446;-80
2023/06/02 05:31:39;;;;;;;22.00;6.17;;;;;;;;;;5076759;28;20988;-79
2023/06/02 05:34:05;;;;;;;27.57;7.13;;;;;;;;;;5071016;28;20454;-79
2023/06/02 05:36:31;;;;;;;26.07;6.87;;;;;;;;;;5081063;28;20556;-80
2023/06/02 05:38:59;;;;;;;29.63;8.23;;;;;;;;;;5078431;28;20497;-79
2023/06/02 05:41:28;;;;;;;26.60;7.23;;;;;;;;;;5078735;28;20469;-79
2023/06/02 05:43:56;;;;;;;38.00;8.73;;;;;;;;;;5077044;28;20455;-79
2023/06/02 05:46:23;;;;;;;33.47;8.73;;;;;;;;;;5076359;28;20555;-78
2023/06/02 05:48:49;;;;;;;29.57;7.80;;;;;;;;;;5077371;28;20458;-78
2023/06/02 05:51:15;;;;;;;36.97;8.87;;;;;;;;;;5082738;28;20482;-79
2023/06/02 05:53:42;;;;;;;32.03;8.30;;;;;;;;;;5082562;28;20461;-79
2023/06/02 05:56:10;;;;;;;28.57;10.70;;;;;;;;;;5074888;28;20483;-79
2023/06/02 05:58:37;;;;;;;22.70;8.60;;;;;;;;;;5075410;28;20473;-79
2023/06/02 06:01:06;;;;;;;24.73;8.03;;;;;;;;;;5072596;28;21016;-78
2023/06/02 06:03:32;;;;;;;60.13;10.13;;;;;;;;;;5062157;28;20439;-80
2023/06/02 06:05:59;;;;;;;32.63;8.77;;;;;;;;;;5077214;28;20467;-83
2023/06/02 06:08:25;;;;;;;16.87;7.43;;;;;;;;;;5076012;28;20461;-81
2023/06/02 06:10:52;;;;;;;22.43;6.90;;;;;;;;;;5080019;28;20463;-79
2023/06/02 06:13:19;;;;;;;19.37;7.40;;;;;;;;;;5063470;28;20453;-79
2023/06/02 06:15:47;;;;;;;20.27;9.00;;;;;;;;;;5074807;28;20482;-79
2023/06/02 06:18:15;;;;;;;19.87;6.53;;;;;;;;;;5074814;28;20814;-78
2023/06/02 06:20:42;;;;;;;20.27;9.87;;;;;;;;;;5070454;28;20447;-79
2023/06/02 06:23:08;;;;;;;29.13;8.47;;;;;;;;;;5079174;28;20467;-79
2023/06/02 06:25:34;;;;;;;23.40;7.70;;;;;;;;;;5085336;28;20412;-78
2023/06/02 06:28:01;;;;;;;18.83;7.53;;;;;;;;;;5076659;28;20482;-79
2023/06/02 06:30:27;;;;;;;23.03;6.77;;;;;;;;;;5074586;28;20440;-79
2023/06/02 06:32:54;;;;;;;22.00;7.73;;;;;;;;;;5080269;28;20429;-79
2023/06/02 06:35:21;;;;;;;26.97;6.50;;;;;;;;;;5070788;28;20475;-79
2023/06/02 06:37:48;;;;;;;23.90;6.90;;;;;;;;;;5073627;28;20449;-79
2023/06/02 06:40:15;;;;;;;25.70;6.33;;;;;;;;;;5077518;28;20459;-79
2023/06/02 06:42:41;;;;;;;22.00;8.23;;;;;;;;;;5077242;28;20441;-79
2023/06/02 06:45:08;;;;;;;21.30;6.13;;;;;;;;;;5080323;28;20424;-79
2023/06/02 06:47:34;;;;;;;19.17;6.40;;;;;;;;;;5074679;28;20445;-79
2023/06/02 06:50:00;;;;;;;24.37;6.50;;;;;;;;;;5075366;28;20409;-78
2023/06/02 06:52:28;;;;;;;15.13;5.97;;;;;;;;;;5082239;28;20453;-79
2023/06/02 06:54:55;;;;;;;16.30;6.90;;;;;;;;;;5075612;28;20489;-82
2023/06/02 06:57:22;;;;;;;19.20;5.83;;;;;;;;;;5067684;28;20548;-80
2023/06/02 06:59:49;;;;;;;26.53;5.90;;;;;;;;;;5075990;28;20430;-79
2023/06/02 07:02:15;;;;;;;12.70;5.57;;;;;;;;;;5079399;28;20459;-80
2023/06/02 07:04:41;;;;;;;15.60;5.37;;;;;;;;;;5079675;28;20486;-80
2023/06/02 07:07:08;;;;;;;21.73;6.13;;;;;;;;;;5076155;28;20461;-79
2023/06/02 07:09:36;;;;;;;15.20;5.90;;;;;;;;;;5053003;28;20451;-80
2023/06/02 07:12:02;;;;;;;20.10;5.83;;;;;;;;;;5072813;28;20443;-80
2023/06/02 07:14:29;;;;;;;17.00;4.33;;;;;;;;;;5074146;28;20470;-78
2023/06/02 07:16:55;;;;;;;10.20;4.00;;;;;;;;;;5076042;28;20453;-79
2023/06/02 07:19:21;;;;;;;16.60;4.40;;;;;;;;;;5079829;28;20444;-78
2023/06/02 07:21:48;;;;;;;10.70;4.50;;;;;;;;;;5082384;28;20422;-78
2023/06/02 07:24:14;;;;;;;16.43;5.70;;;;;;;;;;5077732;28;20452;-80
2023/06/02 07:26:43;;;;;;;5.60;3.20;;;;;;;;;;5072591;28;20451;-78
2023/06/02 07:29:11;;;;;;;8.90;3.07;;;;;;;;;;5075018;28;20486;-79
2023/06/02 07:31:38;;;;;;;5.30;2.67;;;;;;;;;;5070303;28;20439;-79
2023/06/02 07:34:05;;;;;;;16.17;3.30;;;;;;;;;;5073679;28;21324;-81
2023/06/02 07:36:31;;;;;;;8.40;3.00;;;;;;;;;;5077666;28;20489;-80
2023/06/02 07:38:57;;;;;;;4.73;2.20;;;;;;;;;;5074385;28;20482;-80
2023/06/02 07:41:23;;;;;;;6.00;2.70;;;;;;;;;;5078281;28;20459;-80
2023/06/02 07:43:51;;;;;;;8.13;2.90;;;;;;;;;;5079881;28;20462;-80
2023/06/02 07:46:18;;;;;;;9.63;2.87;;;;;;;;;;5077373;28;20465;-80
2023/06/02 07:48:44;;;;;;;7.17;2.77;;;;;;;;;;5085722;28;20470;-80
2023/06/02 07:51:10;;;;;;;4.63;2.70;;;;;;;;;;5080021;28;20465;-80
2023/06/02 07:53:37;;;;;;;4.27;2.20;;;;;;;;;;5077109;28;20474;-80
2023/06/02 07:56:03;;;;;;;8.53;2.70;;;;;;;;;;5076957;28;20479;-80
2023/06/02 07:58:29;;;;;;;7.00;2.43;;;;;;;;;;5082202;28;20553;-78
2023/06/02 08:00:57;;;;;;;7.50;2.47;;;;;;;;;;5080693;28;20459;-79
2023/06/02 08:03:24;;;;;;;6.23;2.20;;;;;;;;;;5077232;28;20483;-79
2023/06/02 08:05:50;;;;;;;6.10;1.90;;;;;;;;;;5075769;28;20435;-79
2023/06/02 08:08:17;;;;;;;5.83;2.27;;;;;;;;;;5080940;28;20466;-80
2023/06/02 08:10:43;;;;;;;3.60;2.37;;;;;;;;;;5075662;28;20453;-79
2023/06/02 08:13:11;;;;;;;3.33;1.57;;;;;;;;;;5079301;28;20983;-79
2023/06/02 08:15:37;;;;;;;5.53;2.33;;;;;;;;;;5074891;28;20486;-80
2023/06/02 08:18:05;;;;;;;6.27;2.30;;;;;;;;;;5079715;28;20470;-80
2023/06/02 08:20:31;;;;;;;5.13;1.80;;;;;;;;;;5079978;28;20463;-79
2023/06/02 08:22:58;;;;;;;10.90;2.33;;;;;;;;;;5074113;28;20459;-79
2023/06/02 08:25:24;;;;;;;6.53;1.80;;;;;;;;;;5071983;28;20442;-80
2023/06/02 08:27:51;;;;;;;7.13;2.53;;;;;;;;;;5077464;28;20479;-79
2023/06/02 08:30:19;;;;;;;2.30;1.50;;;;;;;;;;5082676;28;21007;-80
2023/06/02 08:32:48;;;;;;;5.00;1.70;;;;;;;;;;5084392;28;20494;-79
2023/06/02 08:35:16;;;;;;;2.70;1.50;;;;;;;;;;5081045;28;20450;-80
2023/06/02 08:37:43;;;;;;;4.27;2.10;;;;;;;;;;5073418;28;20481;-80
2023/06/02 08:40:11;;;;;;;4.37;1.80;;;;;;;;;;5080360;28;20478;-79
2023/06/02 08:42:38;;;;;;;4.50;1.63;;;;;;;;;;5075013;28;20473;-80
2023/06/02 08:45:06;;;;;;;6.13;2.20;;;;;;;;;;5077778;28;20870;-80
2023/06/02 08:47:34;;;;;;;5.27;1.90;;;;;;;;;;5077466;28;20474;-80
2023/06/02 08:50:02;;;;;;;6.50;2.80;;;;;;;;;;5083985;28;20454;-79
2023/06/02 08:52:32;;;;;;;7.80;2.80;;;;;;;;;;5091949;28;20470;-80
2023/06/02 08:54:58;;;;;;;8.53;2.70;;;;;;;;;;5073940;28;20442;-80
2023/06/02 08:57:26;;;;;;;6.20;2.77;;;;;;;;;;5078322;28;20478;-80
2023/06/02 08:59:52;;;;;;;3.80;2.80;;;;;;;;;;5081909;28;20944;-80
2023/06/02 09:02:19;;;;;;;5.33;2.23;;;;;;;;;;5077085;28;20474;-80
2023/06/02 09:04:45;;;;;;;7.60;2.40;;;;;;;;;;5085174;28;20852;-80
2023/06/02 09:07:16;;;;;;;11.70;2.50;;;;;;;;;;5083447;28;20495;-80
2023/06/02 09:09:45;;;;;;;9.30;2.60;;;;;;;;;;5080028;28;20508;-79
2023/06/02 09:12:12;;;;;;;5.27;2.30;;;;;;;;;;5071850;28;20834;-80
2023/06/02 09:14:39;;;;;;;12.07;2.73;;;;;;;;;;5081452;28;20447;-80
2023/06/02 09:17:24;;;;;;;3.53;2.30;;;;;;;;;;5083617;28;20487;-81
2023/06/02 09:19:50;;;;;;;4.83;2.57;;;;;;;;;;5081394;28;20454;-80
2023/06/02 09:22:17;;;;;;;6.73;2.60;;;;;;;;;;5078527;28;20489;-80
2023/06/02 09:24:44;;;;;;;5.37;2.63;;;;;;;;;;5079214;28;20470;-80
2023/06/02 09:27:13;;;;;;;5.67;2.60;;;;;;;;;;5080489;28;20478;-81
2023/06/02 09:29:39;;;;;;;3.43;2.20;;;;;;;;;;5057311;28;20463;-81
2023/06/02 09:32:11;;;;;;;8.37;2.53;;;;;;;;;;5078586;28;20455;-80
2023/06/02 09:34:38;;;;;;;6.53;2.37;;;;;;;;;;5082491;28;20470;-80
2023/06/02 09:37:09;;;;;;;8.77;2.67;;;;;;;;;;5081329;28;20517;-80
2023/06/02 09:39:35;;;;;;;5.43;2.20;;;;;;;;;;5083781;28;20458;-80
2023/06/02 09:42:03;;;;;;;10.57;3.20;;;;;;;;;;5077433;28;20944;-80
2023/06/02 09:44:30;;;;;;;12.80;3.70;;;;;;;;;;5071738;28;20461;-80
2023/06/02 09:46:56;;;;;;;3.87;3.20;;;;;;;;;;5078062;28;20477;-78
2023/06/02 09:49:23;;;;;;;6.00;2.80;;;;;;;;;;5078239;28;20541;-80
2023/06/02 09:51:50;;;;;;;7.60;3.43;;;;;;;;;;5079924;28;20944;-79
2023/06/02 09:54:16;;;;;;;9.63;3.10;;;;;;;;;;5090923;28;20466;-80
2023/06/02 09:56:43;;;;;;;7.00;3.37;;;;;;;;;;5076149;28;20576;-80
2023/06/02 09:59:11;;;;;;;7.00;3.60;;;;;;;;;;5075470;28;20482;-80
2023/06/02 10:01:37;;;;;;;5.37;3.50;;;;;;;;;;5076730;28;20921;-80
2023/06/02 10:04:05;;;;;;;3.70;2.80;;;;;;;;;;5078033;28;20474;-80
2023/06/02 10:06:38;;;;;;;13.10;3.73;;;;;;;;;;5079557;28;20960;-80
2023/06/02 10:09:10;;;;;;;11.13;3.63;;;;;;;;;;5072699;28;20470;-80
2023/06/02 10:11:45;;;;;;;7.40;3.80;;;;;;;;;;5075373;28;20451;-79
2023/06/02 10:14:23;;;;;;;10.10;3.80;;;;;;;;;;5078767;28;20477;-80
2023/06/02 10:16:57;;;;;;;4.30;2.97;;;;;;;;;;5072635;28;20501;-79
2023/06/02 10:19:46;;;;;;;7.87;3.10;;;;;;;;;;5078351;28;20545;-79
2023/06/02 10:22:25;;;;;;;7.60;3.27;;;;;;;;;;5069800;28;20470;-80
2023/06/02 10:24:56;;;;;;;7.07;3.30;;;;;;;;;;5073039;28;20445;-79
2023/06/02 10:27:28;;;;;;;6.20;3.40;;;;;;;;;;5076341;28;20992;-79
2023/06/02 10:29:56;;;;;;;7.33;3.40;;;;;;;;;;5079760;28;20454;-79
2023/06/02 10:32:23;;;;;;;10.90;3.97;;;;;;;;;;5075921;28;20471;-79
2023/06/02 10:34:51;;;;;;;9.83;3.83;;;;;;;;;;5081154;28;20944;-79
2023/06/02 10:37:18;;;;;;;7.90;4.07;;;;;;;;;;5076107;28;20564;-78
2023/06/02 10:39:50;;;;;;;8.03;3.90;;;;;;;;;;5086694;28;20469;-79
2023/06/02 10:42:17;;;;;;;10.17;3.87;;;;;;;;;;5074600;28;20455;-79
2023/06/02 10:44:47;;;;;;;8.20;3.53;;;;;;;;;;5077949;28;20458;-79
2023/06/02 10:47:32;;;;;;;8.93;4.70;;;;;;;;;;5077004;28;20819;-78
2023/06/02 10:50:01;;;;;;;7.50;3.80;;;;;;;;;;5077684;28;20482;-78
2023/06/02 10:52:29;;;;;;;7.27;4.43;;;;;;;;;;5078962;28;20464;-80
2023/06/02 10:55:23;;;;;;;7.43;3.73;;;;;;;;;;5081693;28;20450;-80
2023/06/02 10:57:49;;;;;;;11.10;3.80;;;;;;;;;;5050296;28;20474;-78
2023/06/02 11:00:30;;;;;;;10.97;3.47;;;;;;;;;;5077234;28;20442;-79
2023/06/02 11:02:57;;;;;;;6.77;4.53;;;;;;;;;;5070529;28;20562;-78
2023/06/02 11:05:26;;;;;;;10.33;4.77;;;;;;;;;;5078285;28;20450;-78
2023/06/02 11:08:07;;;;;;;7.70;4.17;;;;;;;;;;5076394;28;20895;-79
2023/06/02 11:10:43;;;;;;;8.23;4.30;;;;;;;;;;5076064;28;20447;-78
2023/06/02 11:13:10;;;;;;;10.10;5.30;;;;;;;;;;5076552;28;20466;-79
2023/06/02 11:15:36;;;;;;;5.73;5.10;;;;;;;;;;5077517;28;20442;-80
2023/06/02 11:18:22;;;;;;;7.67;4.17;;;;;;;;;;5076348;28;20474;-80
2023/06/02 11:20:51;;;;;;;11.37;4.37;;;;;;;;;;5077178;28;20454;-78
2023/06/02 11:23:18;;;;;;;9.67;4.70;;;;;;;;;;5078993;28;20560;-78
2023/06/02 11:25:45;;;;;;;8.97;4.43;;;;;;;;;;5081646;28;20483;-79
2023/06/02 11:28:17;;;;;;;7.63;4.33;;;;;;;;;;5071494;28;20524;-78
2023/06/02 11:30:43;;;;;;;11.10;4.83;;;;;;;;;;5077968;28;20512;-78
2023/06/02 11:33:09;;;;;;;6.90;4.80;;;;;;;;;;5072272;28;20487;-78
2023/06/02 11:35:36;;;;;;;12.03;4.97;;;;;;;;;;5069025;28;20440;-79
2023/06/02 11:38:06;;;;;;;9.17;4.40;;;;;;;;;;5072625;28;20845;-79
2023/06/02 11:40:32;;;;;;;7.93;4.27;;;;;;;;;;5074742;28;20459;-79
2023/06/02 11:42:59;;;;;;;9.33;5.13;;;;;;;;;;5075912;28;20506;-79
2023/06/02 11:45:26;;;;;;;7.33;5.10;;;;;;;;;;5071630;28;20842;-77
2023/06/02 11:47:59;;;;;;;12.93;4.10;;;;;;;;;;5074619;28;20485;-79
2023/06/02 11:50:25;;;;;;;9.87;5.67;;;;;;;;;;5080079;28;20453;-78
2023/06/02 11:52:52;;;;;;;5.80;3.97;;;;;;;;;;5071057;28;20470;-78
2023/06/02 11:55:20;;;;;;;8.33;5.03;;;;;;;;;;5074770;28;20462;-80
2023/06/02 11:57:46;;;;;;;9.37;4.73;;;;;;;;;;5074028;28;20481;-81
2023/06/02 12:00:15;;;;;;;11.47;5.07;;;;;;;;;;5070241;28;20459;-80
2023/06/02 12:02:43;;;;;;;7.33;5.17;;;;;;;;;;5078907;28;20506;-80
2023/06/02 12:05:11;;;;;;;7.93;4.23;;;;;;;;;;5082338;28;20439;-81
2023/06/02 12:07:37;;;;;;;6.90;4.33;;;;;;;;;;5072599;28;20475;-80
2023/06/02 12:10:05;;;;;;;6.73;3.80;;;;;;;;;;5061196;28;20562;-80
2023/06/02 12:12:34;;;;;;;9.57;4.20;;;;;;;;;;5071897;28;20546;-78
2023/06/02 12:15:12;;;;;;;5.87;4.20;;;;;;;;;;5075462;28;20805;-78
2023/06/02 12:17:42;;;;;;;6.37;4.27;;;;;;;;;;5077228;28;20466;-79
2023/06/02 12:20:09;;;;;;;6.80;4.80;;;;;;;;;;5075501;28;20512;-80
2023/06/02 12:22:35;;;;;;;7.13;4.47;;;;;;;;;;5077637;28;20466;-80
2023/06/02 12:25:11;;;;;;;6.47;4.40;;;;;;;;;;5071844;28;20542;-79
2023/06/02 12:27:38;;;;;;;4.83;3.93;;;;;;;;;;5072350;28;20470;-79
2023/06/02 12:30:05;;;;;;;10.90;5.57;;;;;;;;;;5075094;28;20541;-80
2023/06/02 12:32:33;;;;;;;8.63;4.50;;;;;;;;;;5075857;28;20909;-79
2023/06/02 12:34:59;;;;;;;8.40;4.70;;;;;;;;;;5074220;28;20463;-79
2023/06/02 12:37:26;;;;;;;8.40;4.70;;;;;;;;;;5077898;28;20478;-79
2023/06/02 12:39:52;;;;;;;12.63;6.00;;;;;;;;;;5070268;28;20500;-79
2023/06/02 12:42:20;;;;;;;8.67;5.70;;;;;;;;;;5078220;28;20466;-80
2023/06/02 12:44:49;;;;;;;7.60;5.00;;;;;;;;;;5082672;28;20460;-79
2023/06/02 12:47:16;;;;;;;9.47;5.47;;;;;;;;;;5070155;28;20483;-80
2023/06/02 12:49:42;;;;;;;11.77;5.23;;;;;;;;;;5073727;28;20537;-80
2023/06/02 12:52:08;;;;;;;11.07;5.10;;;;;;;;;;5075587;28;20457;-80
2023/06/02 12:54:35;;;;;;;13.20;4.53;;;;;;;;;;5074703;28;20443;-80
2023/06/02 12:57:01;;;;;;;9.77;4.53;;;;;;;;;;5073521;28;20466;-80
2023/06/02 12:59:28;;;;;;;9.60;4.67;;;;;;;;;;5072725;28;20958;-80
2023/06/02 13:01:55;;;;;;;5.40;4.50;;;;;;;;;;5075238;28;20451;-80
2023/06/02 13:04:22;;;;;;;5.70;4.47;;;;;;;;;;5077104;28;20446;-80
2023/06/02 13:06:48;;;;;;;11.23;4.20;;;;;;;;;;5077867;28;20447;-79
2023/06/02 13:09:15;;;;;;;8.53;4.30;;;;;;;;;;5071102;28;20541;-79
2023/06/02 13:11:42;;;;;;;7.17;3.97;;;;;;;;;;5070539;28;20496;-81
2023/06/02 13:14:09;;;;;;;8.77;4.73;;;;;;;;;;5074003;28;20474;-80
2023/06/02 13:16:36;;;;;;;10.10;5.60;;;;;;;;;;5074962;28;20462;-80
2023/06/02 13:19:04;;;;;;;10.97;4.50;;;;;;;;;;5080593;28;20474;-79
2023/06/02 13:21:30;;;;;;;7.67;4.27;;;;;;;;;;5076393;28;20460;-80
2023/06/02 13:23:57;;;;;;;9.00;4.50;;;;;;;;;;5076686;28;20655;-79
2023/06/02 13:26:26;;;;;;;6.60;4.20;;;;;;;;;;5075214;28;20621;-80
2023/06/02 13:28:52;;;;;;;8.03;4.00;;;;;;;;;;5070994;28;20465;-79
2023/06/02 13:31:18;;;;;;;8.17;3.93;;;;;;;;;;5076236;28;20477;-79
2023/06/02 13:33:45;;;;;;;7.97;3.90;;;;;;;;;;5075917;28;20459;-79
2023/06/02 13:36:13;;;;;;;4.30;3.67;;;;;;;;;;5075996;28;20468;-79
2023/06/02 13:38:39;;;;;;;9.00;4.20;;;;;;;;;;5076108;28;20478;-80
2023/06/02 13:41:06;;;;;;;8.57;4.27;;;;;;;;;;5076737;28;20454;-79
2023/06/02 13:43:32;;;;;;;10.23;5.43;;;;;;;;;;5083811;28;20470;-80
2023/06/02 13:45:59;;;;;;;7.53;3.70;;;;;;;;;;5078012;28;20623;-80
2023/06/02 13:48:25;;;;;;;5.60;3.90;;;;;;;;;;5077483;28;20462;-80
2023/06/02 13:50:52;;;;;;;7.10;3.67;;;;;;;;;;5083198;28;20454;-80
2023/06/02 13:53:20;;;;;;;4.50;3.50;;;;;;;;;;5080595;28;20846;-81
2023/06/02 13:55:46;;;;;;;4.80;4.00;;;;;;;;;;5081957;28;20445;-80
2023/06/02 13:58:13;;;;;;;6.37;3.40;;;;;;;;;;5082949;28;21030;-78
2023/06/02 14:00:40;;;;;;;6.70;3.37;;;;;;;;;;5077613;28;20500;-80
2023/06/02 14:03:06;;;;;;;5.10;3.13;;;;;;;;;;5080281;28;20477;-78
2023/06/02 14:05:34;;;;;;;4.87;3.30;;;;;;;;;;5076309;28;20443;-80
2023/06/02 14:08:01;;;;;;;5.67;3.07;;;;;;;;;;5081957;28;20522;-80
2023/06/02 14:10:28;;;;;;;6.60;2.97;;;;;;;;;;5073200;28;20463;-79
2023/06/02 14:12:55;;;;;;;8.13;3.37;;;;;;;;;;5075062;28;20469;-80
2023/06/02 14:15:21;;;;;;;5.60;3.27;;;;;;;;;;5078032;28;20458;-80
2023/06/02 14:17:48;;;;;;;4.37;3.23;;;;;;;;;;5078492;28;20489;-80
2023/06/02 14:20:14;;;;;;;4.37;2.60;;;;;;;;;;5082873;28;20467;-79
2023/06/02 14:22:41;;;;;;;5.20;3.03;;;;;;;;;;5082189;28;20462;-79
2023/06/02 14:25:08;;;;;;;6.70;3.63;;;;;;;;;;5078598;28;20446;-80
2023/06/02 14:27:36;;;;;;;4.00;2.90;;;;;;;;;;5076984;28;20475;-80
2023/06/02 14:30:03;;;;;;;6.07;3.33;;;;;;;;;;5086056;28;20462;-79
2023/06/02 14:32:30;;;;;;;4.70;3.20;;;;;;;;;;5077676;28;20482;-80
2023/06/02 14:34:56;;;;;;;5.90;3.30;;;;;;;;;;5076861;28;20451;-78
2023/06/02 14:37:22;;;;;;;6.80;3.27;;;;;;;;;;5079719;28;20486;-80
2023/06/02 14:39:49;;;;;;;5.40;3.20;;;;;;;;;;5074300;28;20443;-80